Terminal Aerodrome Forecast
Issued by NWS Cleveland, OH

Home | Current Version | Previous Version | Graphics & Text | Print | Product List | Glossary Off
Versions: 1 2 3 4 5 6 7 8 9 10 11 12 13 14 15 16 17 18 19

396
FTUS41 KCLE 222125 AAA
TAFCAK
TAF AMD
KCAK 222125Z 2221/2318 21010KT P6SM BKN015
     FM230600 20006KT 5SM BR OVC008
     FM231400 20010KT 3SM BR OVC004=

USA.gov is the U.S. government's official web portal to all federal, state and local government web resources and services.